createdAt,value
2023-03-16T00:00:00.923Z,4.19
2023-03-16T00:01:00.932Z,4.19
2023-03-16T00:02:01.020Z,4.17
2023-03-16T00:03:00.990Z,4.20
2023-03-16T00:04:00.882Z,4.17
2023-03-16T00:05:00.857Z,4.17
2023-03-16T00:06:00.927Z,4.17
2023-03-16T00:07:00.838Z,4.17
2023-03-16T00:08:00.838Z,4.17
2023-03-16T00:09:00.817Z,4.17
2023-03-16T00:10:00.852Z,4.14
2023-03-16T00:11:00.792Z,4.14
2023-03-16T00:12:00.790Z,4.12
2023-03-16T00:13:00.762Z,4.13
2023-03-16T00:14:00.775Z,4.14
2023-03-16T00:15:02.259Z,4.12
2023-03-16T00:16:00.845Z,4.12
2023-03-16T00:17:00.761Z,4.14
2023-03-16T00:18:00.724Z,4.16
2023-03-16T00:19:00.699Z,4.17
2023-03-16T00:20:00.717Z,4.17
2023-03-16T00:21:00.684Z,4.16
2023-03-16T00:22:00.705Z,4.14
2023-03-16T00:23:00.663Z,4.14
2023-03-16T00:24:00.652Z,4.16
2023-03-16T00:25:00.656Z,4.16
2023-03-16T00:26:00.636Z,4.14
2023-03-16T00:27:00.613Z,4.16
2023-03-16T00:28:00.645Z,4.16
2023-03-16T00:29:00.605Z,4.16
2023-03-16T00:30:00.601Z,4.17
2023-03-16T00:31:00.583Z,4.16
2023-03-16T00:32:00.632Z,4.19
2023-03-16T00:33:00.599Z,4.17
2023-03-16T00:34:00.542Z,4.17
2023-03-16T00:35:00.544Z,4.17
2023-03-16T00:36:00.549Z,4.17
2023-03-16T00:37:00.502Z,4.19
2023-03-16T00:38:00.495Z,4.19
2023-03-16T00:39:00.476Z,4.19
2023-03-16T00:40:00.521Z,4.19
2023-03-16T00:41:00.451Z,4.20
2023-03-16T00:42:00.462Z,4.20
2023-03-16T00:43:00.459Z,4.24
2023-03-16T00:44:00.430Z,4.23
2023-03-16T00:45:00.442Z,4.24
2023-03-16T00:46:00.440Z,4.23
2023-03-16T00:47:00.387Z,4.23
2023-03-16T00:48:00.398Z,4.24
2023-03-16T00:49:00.393Z,4.24
2023-03-16T00:50:00.372Z,4.26
2023-03-16T00:51:00.398Z,4.28
2023-03-16T00:52:00.348Z,4.30
2023-03-16T00:53:00.322Z,4.30
2023-03-16T00:54:00.331Z,4.30
2023-03-16T00:55:00.311Z,4.30
2023-03-16T00:56:00.298Z,4.31
2023-03-16T00:57:00.470Z,4.31
2023-03-16T00:58:00.273Z,4.31
2023-03-16T00:59:00.304Z,4.34
2023-03-16T01:00:00.261Z,4.35
2023-03-16T01:01:00.295Z,4.37
2023-03-16T01:02:00.241Z,4.35
2023-03-16T01:03:00.225Z,4.37
2023-03-16T01:04:00.205Z,4.38
2023-03-16T01:05:00.234Z,4.38
2023-03-16T01:06:00.218Z,4.40
2023-03-16T01:07:00.175Z,4.40
2023-03-16T01:08:00.168Z,4.40
2023-03-16T01:09:00.163Z,4.40
2023-03-16T01:10:00.163Z,4.40
2023-03-16T01:11:00.150Z,4.40
2023-03-16T01:12:00.123Z,4.40
2023-03-16T01:13:00.120Z,4.41
2023-03-16T01:14:00.116Z,4.41
2023-03-16T01:15:00.114Z,4.41
2023-03-16T01:16:00.142Z,4.42
2023-03-16T01:17:00.178Z,4.44
2023-03-16T01:18:00.294Z,4.44
2023-03-16T01:19:00.038Z,4.44
2023-03-16T01:20:00.038Z,4.45
2023-03-16T01:21:00.007Z,4.45
2023-03-16T01:22:00.049Z,4.45
2023-03-16T01:22:59.998Z,4.44
2023-03-16T01:24:00.000Z,4.45
2023-03-16T01:24:59.975Z,4.49
2023-03-16T01:25:59.981Z,4.45
2023-03-16T01:26:59.953Z,4.45
2023-03-16T01:27:59.982Z,4.48
2023-03-16T01:28:59.925Z,4.44
2023-03-16T01:30:00.917Z,4.49
2023-03-16T01:30:59.980Z,4.48
2023-03-16T01:31:59.906Z,4.48
2023-03-16T01:32:59.945Z,4.48
2023-03-16T01:33:59.926Z,4.48
2023-03-16T01:34:59.871Z,4.49
2023-03-16T01:35:59.967Z,4.49
2023-03-16T01:36:59.854Z,4.49
2023-03-16T01:37:59.860Z,4.49
2023-03-16T01:38:59.849Z,4.49
2023-03-16T01:39:59.810Z,4.48
2023-03-16T01:41:00.774Z,4.48
2023-03-16T01:41:59.804Z,4.45
2023-03-16T01:42:59.779Z,4.45
2023-03-16T01:44:00.081Z,4.48
2023-03-16T01:44:59.774Z,4.48
2023-03-16T01:45:59.786Z,4.48
2023-03-16T01:46:59.756Z,4.49
2023-03-16T01:47:59.751Z,4.50
2023-03-16T01:49:00.500Z,4.52
2023-03-16T01:49:59.753Z,4.50
2023-03-16T01:50:59.695Z,4.53
2023-03-16T01:51:59.690Z,4.53
2023-03-16T01:52:59.700Z,4.53
2023-03-16T01:53:59.681Z,4.53
2023-03-16T01:54:59.652Z,4.53
2023-03-16T01:55:59.668Z,4.55
2023-03-16T01:56:59.633Z,4.55
2023-03-16T01:57:59.622Z,4.55
2023-03-16T01:58:59.624Z,4.55
2023-03-16T01:59:59.593Z,4.55
2023-03-16T02:00:59.643Z,4.56
2023-03-16T02:01:59.572Z,4.58
2023-03-16T02:02:59.597Z,4.58
2023-03-16T02:03:59.589Z,4.58
2023-03-16T02:04:59.538Z,4.56
2023-03-16T02:05:59.546Z,4.58
2023-03-16T02:06:59.529Z,4.58
2023-03-16T02:07:59.534Z,4.58
2023-03-16T02:08:59.521Z,4.58
2023-03-16T02:09:59.539Z,4.58
2023-03-16T02:10:59.489Z,4.56
2023-03-16T02:11:59.470Z,4.56
2023-03-16T02:12:59.475Z,4.53
2023-03-16T02:13:59.454Z,4.53
2023-03-16T02:14:59.434Z,4.53
2023-03-16T02:15:59.547Z,4.53
2023-03-16T02:16:59.422Z,4.52
2023-03-16T02:17:59.419Z,4.53
2023-03-16T02:18:59.393Z,4.53
2023-03-16T02:20:00.140Z,4.53
2023-03-16T02:20:59.360Z,4.52
2023-03-16T02:21:59.398Z,4.50
2023-03-16T02:22:59.358Z,4.52
2023-03-16T02:23:59.368Z,4.52
2023-03-16T02:25:00.355Z,4.50
2023-03-16T02:25:59.338Z,4.50
2023-03-16T02:26:59.308Z,4.50
2023-03-16T02:27:59.295Z,4.50
2023-03-16T02:28:59.278Z,4.50
2023-03-16T02:29:59.288Z,4.49
2023-03-16T02:30:59.287Z,4.50
2023-03-16T02:31:59.279Z,4.52
2023-03-16T02:32:59.270Z,4.52
2023-03-16T02:33:59.352Z,4.50
2023-03-16T02:34:59.211Z,4.50
2023-03-16T02:35:59.250Z,4.49
2023-03-16T02:36:59.201Z,4.50
2023-03-16T02:37:59.210Z,4.49
2023-03-16T02:38:59.168Z,4.49
2023-03-16T02:39:59.170Z,4.49
2023-03-16T02:41:00.125Z,4.53
2023-03-16T02:41:59.171Z,4.53
2023-03-16T02:42:59.168Z,4.55
2023-03-16T02:43:59.215Z,4.55
2023-03-16T02:44:59.148Z,4.58
2023-03-16T02:45:59.107Z,4.56
2023-03-16T02:46:59.098Z,4.56
2023-03-16T02:47:59.114Z,4.55
2023-03-16T02:48:59.064Z,4.55
2023-03-16T02:49:59.058Z,4.56
2023-03-16T02:50:59.044Z,4.56
2023-03-16T02:51:59.038Z,4.56
2023-03-16T02:52:59.857Z,4.56
2023-03-16T02:53:59.107Z,4.56
2023-03-16T02:54:59.179Z,4.56
2023-03-16T02:55:59.011Z,4.58
2023-03-16T02:56:59.120Z,4.59
2023-03-16T02:57:58.981Z,4.56
2023-03-16T02:58:58.980Z,4.58
2023-03-16T02:59:58.986Z,4.58
2023-03-16T03:00:58.951Z,4.58
2023-03-16T03:01:58.920Z,4.58
2023-03-16T03:02:58.957Z,4.56
2023-03-16T03:03:58.909Z,4.58
2023-03-16T03:04:58.889Z,4.56
2023-03-16T03:06:00.156Z,4.55
2023-03-16T03:06:58.886Z,4.53
2023-03-16T03:07:58.860Z,4.53
2023-03-16T03:08:58.872Z,4.52
2023-03-16T03:09:58.884Z,4.53
2023-03-16T03:10:58.830Z,4.52
2023-03-16T03:11:58.824Z,4.52
2023-03-16T03:12:58.814Z,4.52
2023-03-16T03:13:58.972Z,4.52
2023-03-16T03:14:58.786Z,4.53
2023-03-16T03:15:58.873Z,4.53
2023-03-16T03:16:58.792Z,4.53
2023-03-16T03:17:58.771Z,4.53
2023-03-16T03:18:58.746Z,4.56
2023-03-16T03:19:58.731Z,4.56
2023-03-16T03:20:58.759Z,4.56
2023-03-16T03:21:58.698Z,4.56
2023-03-16T03:22:58.720Z,4.56
2023-03-16T03:23:58.707Z,4.59
2023-03-16T03:24:58.668Z,4.60
2023-03-16T03:25:58.665Z,4.60
2023-03-16T03:26:58.648Z,4.63
2023-03-16T03:27:58.697Z,4.66
2023-03-16T03:28:58.656Z,4.66
2023-03-16T03:29:58.618Z,4.67
2023-03-16T03:30:58.620Z,4.67
2023-03-16T03:31:58.677Z,4.70
2023-03-16T03:32:58.649Z,4.70
2023-03-16T03:33:58.590Z,4.70
2023-03-16T03:34:58.728Z,4.68
2023-03-16T03:35:58.643Z,4.70
2023-03-16T03:36:58.559Z,4.70
2023-03-16T03:37:58.544Z,4.70
2023-03-16T03:38:58.531Z,4.70
2023-03-16T03:39:58.505Z,4.70
2023-03-16T03:40:58.495Z,4.70
2023-03-16T03:41:58.531Z,4.71
2023-03-16T03:42:58.481Z,4.73
2023-03-16T03:43:58.473Z,4.73
2023-03-16T03:44:58.455Z,4.71
2023-03-16T03:45:58.567Z,4.73
2023-03-16T03:46:58.502Z,4.73
2023-03-16T03:47:58.444Z,4.71
2023-03-16T03:48:58.416Z,4.70
2023-03-16T03:49:58.432Z,4.68
2023-03-16T03:50:58.404Z,4.68
2023-03-16T03:51:58.445Z,4.68
2023-03-16T03:52:58.426Z,4.68
2023-03-16T03:53:58.512Z,4.66
2023-03-16T03:54:58.354Z,4.66
2023-03-16T03:55:58.342Z,4.63
2023-03-16T03:56:58.321Z,4.66
2023-03-16T03:57:58.324Z,4.63
2023-03-16T03:58:58.632Z,4.62
2023-03-16T03:59:58.312Z,4.62
2023-03-16T04:00:58.290Z,4.62
2023-03-16T04:01:58.382Z,4.62
2023-03-16T04:02:58.383Z,4.63
2023-03-16T04:03:59.215Z,4.63
2023-03-16T04:04:58.237Z,4.66
2023-03-16T04:05:59.681Z,4.63
2023-03-16T04:06:58.239Z,4.63
2023-03-16T04:07:58.235Z,4.62
2023-03-16T04:08:58.218Z,4.62
2023-03-16T04:09:58.205Z,4.62
2023-03-16T04:10:58.181Z,4.60
2023-03-16T04:11:58.174Z,4.62
2023-03-16T04:12:59.048Z,4.60
2023-03-16T04:13:59.577Z,4.60
2023-03-16T04:14:58.125Z,4.60
2023-03-16T04:15:58.137Z,4.59
2023-03-16T04:16:58.314Z,4.60
2023-03-16T04:17:59.650Z,4.59
2023-03-16T04:18:58.130Z,4.59
2023-03-16T04:19:58.071Z,4.62
2023-03-16T04:20:58.080Z,4.62
2023-03-16T04:21:58.114Z,4.63
2023-03-16T04:22:59.397Z,4.66
2023-03-16T04:23:58.227Z,4.67
2023-03-16T04:24:58.062Z,4.66
2023-03-16T04:25:58.016Z,4.66
2023-03-16T04:26:58.013Z,4.66
2023-03-16T04:27:57.988Z,4.67
2023-03-16T04:28:57.990Z,4.66
2023-03-16T04:29:57.966Z,4.67
2023-03-16T04:30:58.102Z,4.67
2023-03-16T04:31:57.963Z,4.67
2023-03-16T04:32:58.050Z,4.68
2023-03-16T04:33:58.313Z,4.68
2023-03-16T04:34:58.076Z,4.70
2023-03-16T04:35:57.943Z,4.70
2023-03-16T04:36:58.854Z,4.71
2023-03-16T04:37:58.738Z,4.73
2023-03-16T04:38:57.872Z,4.74
2023-03-16T04:39:58.433Z,4.73
2023-03-16T04:40:57.864Z,4.73
2023-03-16T04:41:57.856Z,4.71
2023-03-16T04:42:58.683Z,4.73
2023-03-16T04:43:57.838Z,4.73
2023-03-16T04:44:57.847Z,4.73
2023-03-16T04:45:57.858Z,4.73
2023-03-16T04:46:57.785Z,4.73
2023-03-16T04:47:57.777Z,4.74
2023-03-16T04:48:57.804Z,4.74
2023-03-16T04:49:57.745Z,4.73
2023-03-16T04:50:57.974Z,4.73
2023-03-16T04:51:57.744Z,4.71
2023-03-16T04:52:57.716Z,4.73
2023-03-16T04:53:58.497Z,4.71
2023-03-16T04:54:57.744Z,4.71
2023-03-16T04:55:59.186Z,4.70
2023-03-16T04:56:57.676Z,4.73
2023-03-16T04:57:57.691Z,4.71
2023-03-16T04:58:59.164Z,4.73
2023-03-16T04:59:57.639Z,4.73
2023-03-16T05:00:57.949Z,4.73
2023-03-16T05:01:57.788Z,4.74
2023-03-16T05:02:57.615Z,4.73
2023-03-16T05:03:59.670Z,4.73
2023-03-16T05:04:58.128Z,4.74
2023-03-16T05:05:57.671Z,4.75
2023-03-16T05:06:57.662Z,4.73
2023-03-16T05:07:57.552Z,4.73
2023-03-16T05:08:57.588Z,4.73
2023-03-16T05:09:57.590Z,4.73
2023-03-16T05:10:58.368Z,4.73
2023-03-16T05:11:57.526Z,4.73
2023-03-16T05:12:57.522Z,4.73
2023-03-16T05:13:58.981Z,4.73
2023-03-16T05:14:57.498Z,4.73
2023-03-16T05:15:57.631Z,4.71
2023-03-16T05:16:58.477Z,4.73
2023-03-16T05:17:57.440Z,4.73
2023-03-16T05:18:57.466Z,4.73
2023-03-16T05:19:57.477Z,4.73
2023-03-16T05:20:57.426Z,4.73
2023-03-16T05:21:57.425Z,4.74
2023-03-16T05:22:57.413Z,4.73
2023-03-16T05:23:57.375Z,4.73
2023-03-16T05:24:57.588Z,4.73
2023-03-16T05:25:57.396Z,4.73
2023-03-16T05:26:57.396Z,4.74
2023-03-16T05:27:57.402Z,4.73
2023-03-16T05:28:57.350Z,4.74
2023-03-16T05:29:57.371Z,4.74
2023-03-16T05:30:57.369Z,4.74
2023-03-16T05:31:57.292Z,4.75
2023-03-16T05:32:57.341Z,4.75
2023-03-16T05:33:57.285Z,4.77
2023-03-16T05:34:57.290Z,4.75
2023-03-16T05:35:57.299Z,4.75
2023-03-16T05:36:57.240Z,4.74
2023-03-16T05:37:57.250Z,4.74
2023-03-16T05:38:57.220Z,4.74
2023-03-16T05:39:57.215Z,4.73
2023-03-16T05:40:57.199Z,4.73
2023-03-16T05:41:57.224Z,4.74
2023-03-16T05:42:57.196Z,4.74
2023-03-16T05:43:58.641Z,4.74
2023-03-16T05:44:58.413Z,4.74
2023-03-16T05:45:57.174Z,4.75
2023-03-16T05:46:57.366Z,4.77
2023-03-16T05:47:57.142Z,4.78
2023-03-16T05:48:57.131Z,4.77
2023-03-16T05:49:57.156Z,4.78
2023-03-16T05:50:57.118Z,4.78
2023-03-16T05:51:57.111Z,4.78
2023-03-16T05:52:57.080Z,4.82
2023-03-16T05:53:57.075Z,4.84
2023-03-16T05:54:57.050Z,4.86
2023-03-16T05:55:57.095Z,4.87
2023-03-16T05:56:57.859Z,4.89
2023-03-16T05:57:58.522Z,4.90
2023-03-16T05:58:57.025Z,4.90
2023-03-16T05:59:58.520Z,4.90
2023-03-16T06:00:58.463Z,4.89
2023-03-16T06:01:56.995Z,4.90
2023-03-16T06:02:57.065Z,4.92
2023-03-16T06:03:58.484Z,4.93
2023-03-16T06:04:57.205Z,4.93
2023-03-16T06:05:56.939Z,4.94
2023-03-16T06:06:57.899Z,4.94
2023-03-16T06:07:56.953Z,4.94
2023-03-16T06:08:57.857Z,4.96
2023-03-16T06:09:56.945Z,4.96
2023-03-16T06:10:56.885Z,4.97
2023-03-16T06:11:56.880Z,4.99
2023-03-16T06:12:58.460Z,4.99
2023-03-16T06:13:56.923Z,4.99
2023-03-16T06:14:57.183Z,5.00
2023-03-16T06:15:56.898Z,5.02
2023-03-16T06:16:56.816Z,5.04
2023-03-16T06:17:57.096Z,5.02
2023-03-16T06:18:59.228Z,5.04
2023-03-16T06:19:57.009Z,5.07
2023-03-16T06:20:56.764Z,5.05
2023-03-16T06:21:56.839Z,5.07
2023-03-16T06:22:56.749Z,5.07
2023-03-16T06:23:56.725Z,5.08
2023-03-16T06:24:56.730Z,5.08
2023-03-16T06:25:56.756Z,5.08
2023-03-16T06:26:56.733Z,5.10
2023-03-16T06:27:56.727Z,5.10
2023-03-16T06:28:56.708Z,5.11
2023-03-16T06:29:56.669Z,5.11
2023-03-16T06:30:56.677Z,5.11
2023-03-16T06:31:56.703Z,5.10
2023-03-16T06:32:56.722Z,5.11
2023-03-16T06:33:56.670Z,5.11
2023-03-16T06:34:56.669Z,5.14
2023-03-16T06:35:57.629Z,5.14
2023-03-16T06:36:59.071Z,5.15
2023-03-16T06:37:56.615Z,5.14
2023-03-16T06:38:57.531Z,5.14
2023-03-16T06:39:57.605Z,5.17
2023-03-16T06:40:56.578Z,5.17
2023-03-16T06:41:56.539Z,5.20
2023-03-16T06:42:56.558Z,5.21
2023-03-16T06:43:56.512Z,5.23
2023-03-16T06:44:58.513Z,5.25
2023-03-16T06:45:56.726Z,5.29
2023-03-16T06:46:56.525Z,5.30
2023-03-16T06:47:56.477Z,5.32
2023-03-16T06:48:56.494Z,5.35
2023-03-16T06:49:57.296Z,5.39
2023-03-16T06:50:56.439Z,5.41
2023-03-16T06:51:56.447Z,5.43
2023-03-16T06:52:56.433Z,5.50
2023-03-16T06:53:56.397Z,5.54
2023-03-16T06:54:56.443Z,5.61
2023-03-16T06:55:56.381Z,5.66
2023-03-16T06:56:56.416Z,5.69
2023-03-16T06:57:56.370Z,5.71
2023-03-16T06:58:57.826Z,5.69
2023-03-16T06:59:56.346Z,5.72
2023-03-16T07:00:56.383Z,5.73
2023-03-16T07:01:56.382Z,5.75
2023-03-16T07:02:59.462Z,5.76
2023-03-16T07:03:57.828Z,5.76
2023-03-16T07:04:56.294Z,5.79
2023-03-16T07:05:56.347Z,5.79
2023-03-16T07:06:56.297Z,5.80
2023-03-16T07:07:56.293Z,5.82
2023-03-16T07:08:56.274Z,5.82
2023-03-16T07:09:56.242Z,5.83
2023-03-16T07:10:56.263Z,5.84
2023-03-16T07:11:57.789Z,5.84
2023-03-16T07:12:57.059Z,5.87
2023-03-16T07:13:56.234Z,5.87
2023-03-16T07:14:56.177Z,5.89
2023-03-16T07:15:56.183Z,5.91
2023-03-16T07:16:56.240Z,5.91
2023-03-16T07:17:56.162Z,5.93
2023-03-16T07:18:56.192Z,5.93
2023-03-16T07:19:56.157Z,5.93
2023-03-16T07:20:56.141Z,5.97
2023-03-16T07:21:56.124Z,5.93
2023-03-16T07:22:56.094Z,5.98
2023-03-16T07:23:56.096Z,6.01
2023-03-16T07:24:56.095Z,6.08
2023-03-16T07:25:56.100Z,6.11
2023-03-16T07:26:56.038Z,6.16
2023-03-16T07:27:56.037Z,6.19
2023-03-16T07:28:58.123Z,6.19
2023-03-16T07:29:56.035Z,6.20
2023-03-16T07:31:03.486Z,6.24
2023-03-16T07:31:57.258Z,6.26
2023-03-16T07:32:56.096Z,6.24
2023-03-16T07:33:55.968Z,6.22
2023-03-16T07:34:58.771Z,6.22
2023-03-16T07:35:56.026Z,6.24
2023-03-16T07:36:55.957Z,6.22
2023-03-16T07:37:56.945Z,6.22
2023-03-16T07:38:55.920Z,6.26
2023-03-16T07:39:55.901Z,6.26
2023-03-16T07:40:55.877Z,6.27
2023-03-16T07:41:55.891Z,6.26
2023-03-16T07:42:55.918Z,6.22
2023-03-16T07:43:55.890Z,6.22
2023-03-16T07:44:55.870Z,6.26
2023-03-16T07:45:55.903Z,6.26
2023-03-16T07:46:55.872Z,6.26
2023-03-16T07:47:55.817Z,6.26
2023-03-16T07:48:55.832Z,6.26
2023-03-16T07:49:55.802Z,6.28
2023-03-16T07:50:55.795Z,6.27
2023-03-16T07:51:55.777Z,6.30
2023-03-16T07:52:55.760Z,6.33
2023-03-16T07:53:55.778Z,6.38
2023-03-16T07:54:55.784Z,6.41
2023-03-16T07:55:55.778Z,6.42
2023-03-16T07:56:55.771Z,6.44
2023-03-16T07:57:55.709Z,6.41
2023-03-16T07:58:55.693Z,6.41
2023-03-16T07:59:55.670Z,6.39
2023-03-16T08:00:55.690Z,6.36
2023-03-16T08:01:55.647Z,6.36
2023-03-16T08:02:55.679Z,6.38
2023-03-16T08:03:55.639Z,6.39
2023-03-16T08:04:55.625Z,6.45
2023-03-16T08:05:55.638Z,6.52
2023-03-16T08:06:55.671Z,6.56
2023-03-16T08:07:55.626Z,6.59
2023-03-16T08:08:55.610Z,6.59
2023-03-16T08:09:55.576Z,6.59
2023-03-16T08:10:56.675Z,6.62
2023-03-16T08:11:55.580Z,6.63
2023-03-16T08:12:55.698Z,6.62
2023-03-16T08:13:55.577Z,6.60
2023-03-16T08:14:55.536Z,6.60
2023-03-16T08:15:55.545Z,6.62
2023-03-16T08:16:55.505Z,6.62
2023-03-16T08:17:55.517Z,6.62
2023-03-16T08:18:56.541Z,6.60
2023-03-16T08:19:55.500Z,6.60
2023-03-16T08:20:56.431Z,6.62
2023-03-16T08:22:01.391Z,6.64
2023-03-16T08:22:56.421Z,6.64
2023-03-16T08:23:55.409Z,6.67
2023-03-16T08:24:55.410Z,6.69
2023-03-16T08:25:55.413Z,6.70
2023-03-16T08:26:55.372Z,6.70
2023-03-16T08:27:55.379Z,6.70
2023-03-16T08:28:55.452Z,6.70
2023-03-16T08:29:55.347Z,6.70
2023-03-16T08:30:55.436Z,6.70
2023-03-16T08:31:55.310Z,6.75
2023-03-16T08:32:55.340Z,6.77
2023-03-16T08:33:55.321Z,6.79
2023-03-16T08:34:55.286Z,6.82
2023-03-16T08:35:55.417Z,6.85
2023-03-16T08:36:57.309Z,6.87
2023-03-16T08:37:55.288Z,6.88
2023-03-16T08:39:06.542Z,6.89
2023-03-16T08:39:56.252Z,6.89
2023-03-16T08:40:55.229Z,6.88
2023-03-16T08:41:55.235Z,6.88
2023-03-16T08:42:55.284Z,6.92
2023-03-16T08:43:55.206Z,6.89
2023-03-16T08:44:55.256Z,6.89
2023-03-16T08:45:55.187Z,6.89
2023-03-16T08:46:55.226Z,6.92
2023-03-16T08:47:55.156Z,6.92
2023-03-16T08:48:55.163Z,6.93
2023-03-16T08:49:55.198Z,6.92
2023-03-16T08:50:55.185Z,6.95
2023-03-16T08:51:55.163Z,6.96
2023-03-16T08:52:55.088Z,6.99
2023-03-16T08:53:55.112Z,7.00
2023-03-16T08:55:03.080Z,7.03
2023-03-16T08:55:56.055Z,7.03
2023-03-16T08:56:55.049Z,7.03
2023-03-16T08:57:55.099Z,7.06
2023-03-16T08:58:55.045Z,7.11
2023-03-16T08:59:55.027Z,7.13
2023-03-16T09:00:56.496Z,7.13
2023-03-16T09:01:56.572Z,7.17
2023-03-16T09:02:55.013Z,7.20
2023-03-16T09:03:55.071Z,7.23
2023-03-16T09:04:55.034Z,7.23
2023-03-16T09:05:55.940Z,7.24
2023-03-16T09:07:07.887Z,7.25
2023-03-16T09:07:55.946Z,7.28
2023-03-16T09:08:54.904Z,7.28
2023-03-16T09:09:54.902Z,7.32
2023-03-16T09:10:55.146Z,7.32
2023-03-16T09:11:54.893Z,7.31
2023-03-16T09:12:54.901Z,7.31
2023-03-16T09:13:54.933Z,7.31
2023-03-16T09:14:54.852Z,7.33
2023-03-16T09:15:55.402Z,7.36
2023-03-16T09:16:54.844Z,7.38
2023-03-16T09:17:54.826Z,7.38
2023-03-16T09:18:54.817Z,7.40
2023-03-16T09:20:01.338Z,7.43
2023-03-16T09:20:55.783Z,7.45
2023-03-16T09:21:54.789Z,7.47
2023-03-16T09:22:55.626Z,7.50
2023-03-16T09:23:56.224Z,7.51
2023-03-16T09:24:54.758Z,7.50
2023-03-16T09:25:54.735Z,7.53
2023-03-16T09:26:56.357Z,7.56
2023-03-16T09:27:54.728Z,7.58
2023-03-16T09:28:56.699Z,7.66
2023-03-16T09:29:54.696Z,7.69
2023-03-16T09:30:54.693Z,7.70
2023-03-16T09:31:55.570Z,7.75
2023-03-16T09:32:54.736Z,7.77
2023-03-16T09:33:54.664Z,7.82
2023-03-16T09:34:54.633Z,7.87
2023-03-16T09:35:54.664Z,7.91
2023-03-16T09:36:54.598Z,7.95
2023-03-16T09:38:05.550Z,7.98
2023-03-16T09:38:55.586Z,8.03
2023-03-16T09:39:58.024Z,8.05
2023-03-16T09:40:55.617Z,8.01
2023-03-16T09:41:55.510Z,8.05
2023-03-16T09:42:54.547Z,8.08
2023-03-16T09:43:54.583Z,8.10
2023-03-16T09:44:54.617Z,8.13
2023-03-16T09:45:54.538Z,8.16
2023-03-16T09:46:54.514Z,8.18
2023-03-16T09:47:54.507Z,8.23
2023-03-16T09:48:54.486Z,8.24
2023-03-16T09:49:54.508Z,8.26
2023-03-16T09:50:54.959Z,8.30
2023-03-16T09:51:54.437Z,8.31
2023-03-16T09:52:54.429Z,8.34
2023-03-16T09:53:54.472Z,8.38
2023-03-16T09:54:54.407Z,8.41
2023-03-16T09:55:54.437Z,8.46
2023-03-16T09:56:54.612Z,8.48
2023-03-16T09:57:54.407Z,8.51
2023-03-16T09:58:54.406Z,8.53
2023-03-16T09:59:54.373Z,8.55
2023-03-16T10:00:54.466Z,8.58
2023-03-16T10:01:54.495Z,8.61
2023-03-16T10:02:54.365Z,8.66
2023-03-16T10:03:54.352Z,8.67
2023-03-16T10:04:54.300Z,8.69
2023-03-16T10:05:54.290Z,8.70
2023-03-16T10:06:54.266Z,8.69
2023-03-16T10:07:54.283Z,8.69
2023-03-16T10:08:55.224Z,8.70
2023-03-16T10:09:54.239Z,8.71
2023-03-16T10:10:54.256Z,8.73
2023-03-16T10:11:54.214Z,8.73
2023-03-16T10:12:55.769Z,8.76
2023-03-16T10:13:55.170Z,8.73
2023-03-16T10:14:54.432Z,8.70
2023-03-16T10:15:54.189Z,8.67
2023-03-16T10:16:54.282Z,8.69
2023-03-16T10:17:54.295Z,8.69
2023-03-16T10:18:54.144Z,8.71
2023-03-16T10:19:54.142Z,8.74
2023-03-16T10:20:54.134Z,8.78
2023-03-16T10:21:54.974Z,8.78
2023-03-16T10:22:54.080Z,8.79
2023-03-16T10:23:54.198Z,8.78
2023-03-16T10:24:54.079Z,8.78
2023-03-16T10:25:54.074Z,8.79
2023-03-16T10:26:54.310Z,8.81
2023-03-16T10:27:54.095Z,8.79
2023-03-16T10:28:54.007Z,8.81
2023-03-16T10:29:54.021Z,8.81
2023-03-16T10:30:53.997Z,8.87
2023-03-16T10:31:54.032Z,8.89
2023-03-16T10:32:54.052Z,8.95
2023-03-16T10:33:54.002Z,8.97
2023-03-16T10:34:53.952Z,9.03
2023-03-16T10:35:53.938Z,9.10
2023-03-16T10:36:53.947Z,9.16
2023-03-16T10:37:53.923Z,9.21
2023-03-16T10:38:53.951Z,9.22
2023-03-16T10:39:53.894Z,9.28
2023-03-16T10:40:53.884Z,9.31
2023-03-16T10:41:53.877Z,9.34
2023-03-16T10:42:53.871Z,9.37
2023-03-16T10:43:53.877Z,9.46
2023-03-16T10:44:53.857Z,9.44
2023-03-16T10:45:53.853Z,9.46
2023-03-16T10:46:55.388Z,9.44
2023-03-16T10:47:53.828Z,9.44
2023-03-16T10:48:54.925Z,9.46
2023-03-16T10:49:53.822Z,9.48
2023-03-16T10:50:53.826Z,9.48
2023-03-16T10:51:53.815Z,9.48
2023-03-16T10:52:53.750Z,9.51
2023-03-16T10:53:53.751Z,9.51
2023-03-16T10:54:53.753Z,9.51
2023-03-16T10:55:53.720Z,9.56
2023-03-16T10:56:53.769Z,9.58
2023-03-16T10:57:53.745Z,9.55
2023-03-16T10:58:53.682Z,9.56
2023-03-16T10:59:53.683Z,9.58
2023-03-16T11:00:53.785Z,9.64
2023-03-16T11:01:53.672Z,9.65
2023-03-16T11:02:53.707Z,9.64
2023-03-16T11:03:53.659Z,9.64
2023-03-16T11:04:53.859Z,9.65
2023-03-16T11:05:53.652Z,9.68
2023-03-16T11:06:53.646Z,9.69
2023-03-16T11:07:53.649Z,9.73
2023-03-16T11:08:54.760Z,9.73
2023-03-16T11:09:53.629Z,9.77
2023-03-16T11:10:56.173Z,9.79
2023-03-16T11:12:03.156Z,9.82
2023-03-16T11:12:53.524Z,9.83
2023-03-16T11:13:53.530Z,9.84
2023-03-16T11:14:53.554Z,9.89
2023-03-16T11:15:53.534Z,9.91
2023-03-16T11:16:53.596Z,9.94
2023-03-16T11:17:53.534Z,9.97
2023-03-16T11:18:53.519Z,10.01
2023-03-16T11:19:54.780Z,10.09
2023-03-16T11:20:53.458Z,10.16
2023-03-16T11:21:54.377Z,10.23
2023-03-16T11:22:53.476Z,10.31
2023-03-16T11:23:53.599Z,10.37
2023-03-16T11:24:53.429Z,10.42
2023-03-16T11:25:53.556Z,10.48
2023-03-16T11:26:53.386Z,10.51
2023-03-16T11:27:54.229Z,10.54
2023-03-16T11:28:53.398Z,10.54
2023-03-16T11:29:53.361Z,10.59
2023-03-16T11:30:53.369Z,10.57
2023-03-16T11:31:53.482Z,10.57
2023-03-16T11:32:53.473Z,10.57
2023-03-16T11:33:53.326Z,10.59
2023-03-16T11:34:53.297Z,10.57
2023-03-16T11:35:59.196Z,10.59
2023-03-16T11:36:54.387Z,10.59
2023-03-16T11:37:53.283Z,10.57
2023-03-16T11:38:54.528Z,10.56
2023-03-16T11:39:53.274Z,10.54
2023-03-16T11:40:53.300Z,10.56
2023-03-16T11:41:53.223Z,10.56
2023-03-16T11:42:53.236Z,10.60
2023-03-16T11:43:53.225Z,10.59
2023-03-16T11:44:53.214Z,10.61
2023-03-16T11:45:53.232Z,10.60
2023-03-16T11:46:53.217Z,10.63
2023-03-16T11:47:54.637Z,10.68
2023-03-16T11:48:53.165Z,10.69
2023-03-16T11:49:53.154Z,10.78
2023-03-16T11:50:53.117Z,10.81
2023-03-16T11:51:53.123Z,10.87
2023-03-16T11:52:53.108Z,10.93
2023-03-16T11:53:53.109Z,10.99
2023-03-16T11:54:53.090Z,11.07
2023-03-16T11:55:53.063Z,11.14
2023-03-16T11:56:53.039Z,11.18
2023-03-16T11:57:53.042Z,11.26
2023-03-16T11:58:53.040Z,11.27
2023-03-16T12:00:01.066Z,11.32
2023-03-16T12:00:54.824Z,11.37
2023-03-16T12:02:00.139Z,11.44
2023-03-16T12:02:54.094Z,11.52
2023-03-16T12:03:54.474Z,11.60
2023-03-16T12:04:52.962Z,11.62
2023-03-16T12:05:53.016Z,11.68
2023-03-16T12:06:54.833Z,11.70
2023-03-16T12:07:52.941Z,11.73
2023-03-16T12:08:52.968Z,11.72
2023-03-16T12:09:53.876Z,11.72
2023-03-16T12:10:52.881Z,11.75
2023-03-16T12:11:52.877Z,11.78
2023-03-16T12:12:52.872Z,11.77
2023-03-16T12:13:52.854Z,11.73
2023-03-16T12:14:53.017Z,11.70
2023-03-16T12:15:52.884Z,11.70
2023-03-16T12:16:52.925Z,11.72
2023-03-16T12:17:53.483Z,11.70
2023-03-16T12:18:52.800Z,11.66
2023-03-16T12:19:53.752Z,11.68
2023-03-16T12:20:52.811Z,11.62
2023-03-16T12:21:52.779Z,11.55
2023-03-16T12:22:52.741Z,11.52
2023-03-16T12:23:52.738Z,11.48
2023-03-16T12:24:54.190Z,11.45
2023-03-16T12:25:52.772Z,11.40
2023-03-16T12:26:56.530Z,11.36
2023-03-16T12:27:52.703Z,11.33
2023-03-16T12:28:52.696Z,11.29
2023-03-16T12:29:52.685Z,11.25
2023-03-16T12:30:52.694Z,11.23
2023-03-16T12:31:52.714Z,11.22
2023-03-16T12:32:52.699Z,11.19
2023-03-16T12:33:54.105Z,11.18
2023-03-16T12:34:54.596Z,11.17
2023-03-16T12:35:52.636Z,11.15
2023-03-16T12:36:52.616Z,11.15
2023-03-16T12:37:52.614Z,11.14
2023-03-16T12:38:52.598Z,11.17
2023-03-16T12:39:52.622Z,11.18
2023-03-16T12:40:53.404Z,11.19
2023-03-16T12:41:52.543Z,11.19
2023-03-16T12:42:52.856Z,11.22
2023-03-16T12:43:52.611Z,11.22
2023-03-16T12:44:52.577Z,11.25
2023-03-16T12:45:52.572Z,11.26
2023-03-16T12:46:52.505Z,11.27
2023-03-16T12:47:52.486Z,11.27
2023-03-16T12:48:52.476Z,11.27
2023-03-16T12:49:52.472Z,11.29
2023-03-16T12:50:52.454Z,11.27
2023-03-16T12:51:52.483Z,11.30
2023-03-16T12:52:52.413Z,11.30
2023-03-16T12:53:53.876Z,11.35
2023-03-16T12:54:52.395Z,11.33
2023-03-16T12:55:52.633Z,11.36
2023-03-16T12:56:52.914Z,11.37
2023-03-16T12:57:52.367Z,11.41
2023-03-16T12:58:53.375Z,11.45
2023-03-16T12:59:52.366Z,11.47
2023-03-16T13:00:54.331Z,11.45
2023-03-16T13:01:52.446Z,11.48
2023-03-16T13:02:53.836Z,11.54
2023-03-16T13:03:53.772Z,11.57
2023-03-16T13:04:53.174Z,11.59
2023-03-16T13:05:52.413Z,11.62
2023-03-16T13:06:52.290Z,11.65
2023-03-16T13:07:56.175Z,11.72
2023-03-16T13:08:52.289Z,11.81
2023-03-16T13:09:52.316Z,11.91
2023-03-16T13:10:53.210Z,12.03
2023-03-16T13:11:52.228Z,12.13
2023-03-16T13:12:52.214Z,12.27
2023-03-16T13:13:53.647Z,12.40